createdAt,value
2018-05-24T00:00:17.173Z,20.92
2018-05-24T00:01:17.184Z,21.05
2018-05-24T00:02:17.224Z,20.96
2018-05-24T00:03:17.233Z,20.84
2018-05-24T00:04:17.250Z,20.69
2018-05-24T00:05:17.276Z,20.67
2018-05-24T00:06:17.334Z,20.63
2018-05-24T00:07:17.317Z,20.75
2018-05-24T00:08:17.330Z,20.67
2018-05-24T00:09:17.351Z,20.80
2018-05-24T00:10:17.376Z,21.06
2018-05-24T00:11:17.420Z,20.97
2018-05-24T00:12:17.422Z,20.88
2018-05-24T00:13:17.452Z,20.75
2018-05-24T00:14:17.476Z,20.88
2018-05-24T00:15:17.501Z,20.70
2018-05-24T00:16:17.543Z,20.93
2018-05-24T00:17:17.520Z,20.95
2018-05-24T00:18:17.567Z,20.74
2018-05-24T00:19:17.600Z,20.96
2018-05-24T00:20:17.597Z,20.82
2018-05-24T00:21:17.622Z,20.85
2018-05-24T00:22:17.667Z,20.90
2018-05-24T00:23:17.670Z,20.96
2018-05-24T00:24:17.675Z,20.84
2018-05-24T00:25:17.693Z,20.95
2018-05-24T00:26:17.764Z,20.85
2018-05-24T00:27:17.733Z,20.77
2018-05-24T00:28:17.777Z,20.87
2018-05-24T00:29:17.794Z,20.81
2018-05-24T00:30:17.797Z,20.67
2018-05-24T00:31:17.821Z,20.74
2018-05-24T00:32:17.858Z,20.72
2018-05-24T00:33:17.858Z,20.96
2018-05-24T00:34:17.880Z,20.77
2018-05-24T00:35:17.925Z,20.56
2018-05-24T00:36:17.920Z,20.66
2018-05-24T00:37:17.955Z,20.52
2018-05-24T00:38:17.993Z,20.72
2018-05-24T00:39:17.990Z,20.63
2018-05-24T00:40:18.010Z,20.58
2018-05-24T00:41:18.021Z,20.63
2018-05-24T00:42:18.074Z,20.75
2018-05-24T00:43:18.070Z,20.52
2018-05-24T00:44:18.091Z,20.72
2018-05-24T00:45:18.120Z,20.67
2018-05-24T00:46:18.130Z,20.63
2018-05-24T00:47:18.153Z,20.72
2018-05-24T00:48:18.169Z,20.65
2018-05-24T00:49:18.211Z,20.40
2018-05-24T00:50:18.230Z,20.51
2018-05-24T00:51:18.234Z,20.72
2018-05-24T00:52:18.261Z,20.58
2018-05-24T00:53:18.279Z,20.69
2018-05-24T00:54:18.293Z,20.70
2018-05-24T00:55:18.318Z,20.66
2018-05-24T00:56:18.340Z,20.60
2018-05-24T00:57:18.387Z,20.55
2018-05-24T00:58:18.383Z,20.39
2018-05-24T00:59:18.429Z,20.51
2018-05-24T01:00:18.419Z,20.44
2018-05-24T01:01:18.439Z,20.43
2018-05-24T01:02:18.471Z,20.40
2018-05-24T01:03:18.493Z,20.44
2018-05-24T01:04:18.507Z,20.41
2018-05-24T01:05:18.522Z,20.41
2018-05-24T01:06:18.562Z,20.41
2018-05-24T01:07:18.594Z,20.24
2018-05-24T01:08:18.585Z,20.39
2018-05-24T01:09:18.613Z,20.62
2018-05-24T01:10:18.651Z,20.72
2018-05-24T01:11:18.653Z,20.39
2018-05-24T01:12:18.679Z,20.39
2018-05-24T01:13:18.691Z,20.48
2018-05-24T01:14:18.718Z,20.16
2018-05-24T01:15:18.734Z,20.22
2018-05-24T01:16:18.763Z,20.22
2018-05-24T01:17:18.777Z,20.32
2018-05-24T01:18:18.793Z,20.18
2018-05-24T01:19:18.831Z,20.28
2018-05-24T01:20:18.839Z,20.24
2018-05-24T01:21:18.861Z,20.44
2018-05-24T01:22:18.881Z,20.40
2018-05-24T01:23:18.908Z,20.26
2018-05-24T01:24:18.930Z,20.32
2018-05-24T01:25:18.941Z,20.28
2018-05-24T01:26:18.978Z,20.14
2018-05-24T01:27:19.014Z,20.29
2018-05-24T01:28:19.002Z,20.14
2018-05-24T01:29:19.039Z,20.14
2018-05-24T01:30:19.057Z,20.28
2018-05-24T01:31:19.067Z,20.41
2018-05-24T01:32:19.085Z,20.19
2018-05-24T01:33:19.113Z,20.03
2018-05-24T01:34:19.176Z,20.21
2018-05-24T01:35:19.177Z,20.43
2018-05-24T01:36:19.186Z,20.18
2018-05-24T01:37:19.198Z,20.24
2018-05-24T01:38:19.223Z,20.18
2018-05-24T01:39:19.253Z,20.13
2018-05-24T01:40:19.252Z,20.21
2018-05-24T01:41:19.287Z,20.47
2018-05-24T01:42:19.295Z,20.55
2018-05-24T01:43:19.322Z,20.14
2018-05-24T01:44:19.341Z,20.11
2018-05-24T01:45:19.372Z,20.02
2018-05-24T01:46:19.388Z,20.29
2018-05-24T01:47:19.405Z,20.16
2018-05-24T01:48:19.423Z,20.36
2018-05-24T01:49:19.459Z,20.43
2018-05-24T01:50:19.468Z,20.13
2018-05-24T01:51:19.484Z,20.19
2018-05-24T01:52:19.525Z,19.96
2018-05-24T01:53:19.522Z,20.16
2018-05-24T01:54:19.542Z,20.31
2018-05-24T01:55:19.565Z,20.18
2018-05-24T01:56:19.601Z,20.21
2018-05-24T01:57:19.683Z,20.21
2018-05-24T01:58:19.640Z,20.13
2018-05-24T01:59:19.653Z,20.16
2018-05-24T02:00:19.723Z,20.21
2018-05-24T02:01:19.696Z,20.14
2018-05-24T02:02:19.728Z,19.96
2018-05-24T02:03:19.731Z,20.06
2018-05-24T02:04:19.776Z,20.19
2018-05-24T02:05:19.775Z,19.94
2018-05-24T02:06:19.795Z,20.03
2018-05-24T02:07:19.817Z,20.00
2018-05-24T02:08:19.836Z,19.92
2018-05-24T02:09:19.864Z,19.82
2018-05-24T02:10:19.900Z,19.94
2018-05-24T02:11:19.910Z,19.88
2018-05-24T02:12:19.941Z,19.88
2018-05-24T02:13:19.949Z,19.74
2018-05-24T02:14:19.962Z,19.63
2018-05-24T02:15:19.991Z,19.74
2018-05-24T02:16:19.999Z,19.88
2018-05-24T02:17:20.022Z,20.02
2018-05-24T02:18:20.041Z,19.67
2018-05-24T02:19:20.058Z,19.67
2018-05-24T02:20:20.093Z,19.52
2018-05-24T02:21:20.112Z,19.44
2018-05-24T02:22:20.125Z,19.67
2018-05-24T02:23:20.145Z,19.92
2018-05-24T02:24:20.162Z,19.81
2018-05-24T02:25:20.203Z,19.92
2018-05-24T02:26:20.226Z,19.81
2018-05-24T02:27:20.230Z,19.82
2018-05-24T02:28:20.283Z,19.49
2018-05-24T02:29:20.269Z,19.67
2018-05-24T02:30:20.315Z,19.63
2018-05-24T02:31:20.316Z,19.66
2018-05-24T02:32:20.346Z,19.63
2018-05-24T02:33:20.360Z,19.54
2018-05-24T02:34:20.376Z,19.44
2018-05-24T02:35:20.396Z,19.47
2018-05-24T02:36:20.416Z,19.47
2018-05-24T02:37:20.446Z,19.59
2018-05-24T02:38:20.461Z,19.59
2018-05-24T02:39:20.472Z,19.73
2018-05-24T02:40:20.497Z,19.74
2018-05-24T02:41:20.516Z,19.67
2018-05-24T02:42:20.540Z,19.63
2018-05-24T02:43:20.569Z,19.52
2018-05-24T02:44:20.580Z,19.58
2018-05-24T02:45:20.595Z,19.30
2018-05-24T02:46:20.624Z,19.47
2018-05-24T02:47:20.636Z,19.51
2018-05-24T02:48:20.663Z,19.49
2018-05-24T02:49:20.716Z,19.33
2018-05-24T02:50:20.695Z,19.52
2018-05-24T02:51:20.734Z,19.39
2018-05-24T02:52:20.745Z,19.71
2018-05-24T02:53:20.762Z,19.63
2018-05-24T02:54:20.790Z,19.31
2018-05-24T02:55:20.799Z,19.30
2018-05-24T02:56:20.908Z,19.37
2018-05-24T02:57:20.844Z,19.55
2018-05-24T02:58:20.871Z,19.44
2018-05-24T02:59:20.885Z,19.47
2018-05-24T03:00:20.899Z,19.48
2018-05-24T03:01:20.927Z,19.34
2018-05-24T03:02:20.945Z,19.41
2018-05-24T03:03:20.964Z,19.37
2018-05-24T03:04:21.049Z,19.14
2018-05-24T03:05:21.011Z,19.47
2018-05-24T03:06:21.032Z,19.26
2018-05-24T03:07:21.049Z,19.14
2018-05-24T03:08:21.079Z,19.16
2018-05-24T03:09:21.090Z,19.15
2018-05-24T03:10:21.122Z,19.19
2018-05-24T03:11:21.125Z,19.09
2018-05-24T03:12:21.150Z,19.21
2018-05-24T03:13:21.164Z,19.24
2018-05-24T03:14:21.233Z,19.09
2018-05-24T03:15:21.211Z,18.99
2018-05-24T03:16:21.232Z,19.19
2018-05-24T03:17:21.254Z,19.07
2018-05-24T03:18:21.279Z,19.12
2018-05-24T03:19:21.305Z,19.11
2018-05-24T03:20:21.318Z,19.27
2018-05-24T03:21:21.338Z,19.21
2018-05-24T03:22:21.379Z,19.14
2018-05-24T03:23:21.388Z,19.22
2018-05-24T03:24:21.398Z,19.18
2018-05-24T03:25:21.447Z,18.93
2018-05-24T03:26:21.437Z,19.00
2018-05-24T03:27:21.465Z,19.04
2018-05-24T03:28:21.493Z,19.08
2018-05-24T03:29:21.509Z,19.24
2018-05-24T03:30:21.520Z,19.08
2018-05-24T03:31:21.539Z,19.07
2018-05-24T03:32:21.585Z,18.98
2018-05-24T03:33:21.587Z,18.99
2018-05-24T03:34:21.598Z,19.08
2018-05-24T03:35:21.709Z,18.83
2018-05-24T03:36:21.671Z,18.70
2018-05-24T03:37:21.677Z,18.90
2018-05-24T03:38:21.682Z,18.92
2018-05-24T03:39:21.707Z,18.95
2018-05-24T03:40:21.723Z,18.90
2018-05-24T03:41:21.745Z,18.95
2018-05-24T03:42:21.756Z,19.04
2018-05-24T03:43:21.776Z,19.11
2018-05-24T03:44:21.797Z,18.96
2018-05-24T03:45:21.821Z,18.86
2018-05-24T03:46:21.858Z,18.80
2018-05-24T03:47:21.863Z,19.08
2018-05-24T03:48:21.879Z,19.19
2018-05-24T03:49:21.900Z,18.90
2018-05-24T03:50:21.935Z,19.11
2018-05-24T03:51:21.946Z,18.89
2018-05-24T03:52:21.961Z,18.74
2018-05-24T03:53:21.990Z,18.83
2018-05-24T03:54:22.006Z,18.98
2018-05-24T03:55:22.028Z,18.95
2018-05-24T03:56:22.047Z,19.00
2018-05-24T03:57:22.061Z,19.16
2018-05-24T03:58:22.080Z,19.02
2018-05-24T03:59:22.129Z,19.16
2018-05-24T04:00:22.121Z,19.12
2018-05-24T04:01:22.160Z,19.26
2018-05-24T04:02:22.162Z,19.24
2018-05-24T04:03:22.201Z,19.34
2018-05-24T04:04:22.207Z,19.39
2018-05-24T04:05:22.236Z,19.34
2018-05-24T04:06:22.257Z,19.30
2018-05-24T04:07:22.277Z,19.26
2018-05-24T04:08:22.314Z,19.30
2018-05-24T04:09:22.321Z,18.98
2018-05-24T04:10:22.345Z,18.99
2018-05-24T04:11:22.361Z,19.02
2018-05-24T04:12:22.379Z,19.15
2018-05-24T04:13:22.429Z,19.15
2018-05-24T04:14:22.412Z,19.52
2018-05-24T04:15:22.429Z,19.24
2018-05-24T04:16:22.540Z,19.27
2018-05-24T04:17:22.477Z,19.12
2018-05-24T04:18:22.496Z,19.40
2018-05-24T04:19:22.549Z,19.14
2018-05-24T04:20:22.543Z,19.15
2018-05-24T04:21:22.579Z,19.26
2018-05-24T04:22:22.577Z,19.58
2018-05-24T04:23:22.707Z,19.62
2018-05-24T04:24:22.628Z,19.55
2018-05-24T04:25:22.657Z,19.48
2018-05-24T04:26:22.668Z,19.45
2018-05-24T04:27:22.686Z,19.45
2018-05-24T04:28:22.713Z,19.41
2018-05-24T04:29:22.754Z,19.48
2018-05-24T04:30:22.740Z,19.52
2018-05-24T04:31:22.768Z,19.27
2018-05-24T04:32:22.793Z,18.96
2018-05-24T04:33:22.802Z,19.11
2018-05-24T04:34:22.825Z,19.16
2018-05-24T04:35:22.845Z,19.29
2018-05-24T04:36:22.884Z,19.18
2018-05-24T04:37:22.886Z,19.18
2018-05-24T04:38:22.911Z,19.16
2018-05-24T04:39:22.951Z,19.52
2018-05-24T04:40:22.958Z,19.73
2018-05-24T04:41:23.003Z,19.71
2018-05-24T04:42:22.989Z,19.41
2018-05-24T04:43:23.036Z,19.39
2018-05-24T04:44:23.040Z,19.31
2018-05-24T04:45:23.145Z,19.51
2018-05-24T04:46:23.071Z,19.74
2018-05-24T04:47:23.099Z,19.48
2018-05-24T04:48:23.117Z,19.84
2018-05-24T04:49:23.143Z,19.44
2018-05-24T04:50:23.158Z,19.71
2018-05-24T04:51:23.188Z,19.91
2018-05-24T04:52:23.209Z,19.91
2018-05-24T04:53:23.235Z,19.82
2018-05-24T04:54:23.251Z,20.50
2018-05-24T04:55:23.268Z,20.69
2018-05-24T04:56:23.299Z,20.74
2018-05-24T04:57:23.335Z,21.30
2018-05-24T04:58:23.325Z,21.61
2018-05-24T04:59:23.349Z,21.61
2018-05-24T05:00:23.373Z,21.80
2018-05-24T05:01:23.399Z,21.70
2018-05-24T05:02:23.417Z,21.92
2018-05-24T05:03:23.451Z,21.27
2018-05-24T05:04:23.463Z,21.48
2018-05-24T05:05:23.482Z,21.66
2018-05-24T05:06:23.509Z,21.57
2018-05-24T05:07:23.532Z,21.73
2018-05-24T05:08:23.562Z,21.60
2018-05-24T05:09:23.589Z,21.42
2018-05-24T05:10:23.599Z,21.00
2018-05-24T05:11:23.626Z,20.95
2018-05-24T05:12:23.653Z,20.99
2018-05-24T05:13:23.677Z,20.50
2018-05-24T05:14:23.685Z,21.14
2018-05-24T05:15:23.719Z,21.02
2018-05-24T05:16:23.740Z,21.09
2018-05-24T05:17:23.747Z,20.96
2018-05-24T05:18:23.787Z,21.25
2018-05-24T05:19:23.869Z,21.20
2018-05-24T05:20:23.826Z,21.12
2018-05-24T05:21:23.867Z,21.09
2018-05-24T05:22:23.883Z,20.88
2018-05-24T05:23:23.881Z,21.07
2018-05-24T05:24:23.907Z,21.05
2018-05-24T05:25:23.924Z,21.14
2018-05-24T05:26:23.969Z,21.20
2018-05-24T05:27:23.979Z,21.03
2018-05-24T05:28:23.997Z,21.00
2018-05-24T05:29:24.024Z,21.03
2018-05-24T05:30:24.033Z,21.00
2018-05-24T05:31:24.079Z,20.96
2018-05-24T05:32:24.082Z,20.84
2018-05-24T05:33:24.114Z,21.03
2018-05-24T05:34:24.127Z,21.02
2018-05-24T05:35:24.148Z,21.14
2018-05-24T05:36:24.179Z,20.97
2018-05-24T05:37:24.200Z,21.03
2018-05-24T05:38:24.217Z,20.95
2018-05-24T05:39:24.243Z,20.87
2018-05-24T05:40:24.253Z,20.63
2018-05-24T05:41:24.275Z,21.06
2018-05-24T05:42:24.297Z,20.84
2018-05-24T05:43:24.355Z,20.36
2018-05-24T05:44:24.343Z,20.62
2018-05-24T05:45:24.380Z,20.44
2018-05-24T05:46:24.383Z,20.56
2018-05-24T05:47:24.415Z,20.63
2018-05-24T05:48:24.432Z,20.44
2018-05-24T05:49:24.458Z,20.44
2018-05-24T05:50:24.494Z,21.12
2018-05-24T05:51:24.502Z,21.72
2018-05-24T05:52:24.517Z,21.96
2018-05-24T05:53:24.557Z,22.33
2018-05-24T05:54:24.598Z,22.53
2018-05-24T05:55:24.607Z,22.62
2018-05-24T05:56:24.604Z,22.44
2018-05-24T05:57:24.636Z,23.00
2018-05-24T05:58:24.649Z,22.85
2018-05-24T05:59:24.672Z,23.03
2018-05-24T06:00:24.726Z,22.60
2018-05-24T06:01:24.740Z,22.32
2018-05-24T06:02:24.743Z,22.30
2018-05-24T06:03:24.776Z,22.48
2018-05-24T06:04:24.844Z,22.20
2018-05-24T06:05:24.808Z,22.28
2018-05-24T06:06:24.837Z,22.11
2018-05-24T06:07:24.850Z,21.85
2018-05-24T06:08:24.891Z,21.83
2018-05-24T06:09:24.910Z,21.61
2018-05-24T06:10:24.920Z,21.89
2018-05-24T06:11:24.948Z,21.73
2018-05-24T06:12:24.972Z,21.80
2018-05-24T06:13:24.983Z,21.73
2018-05-24T06:14:25.025Z,21.85
2018-05-24T06:15:25.071Z,21.61
2018-05-24T06:16:25.074Z,20.93
2018-05-24T06:17:25.074Z,20.87
2018-05-24T06:18:25.129Z,21.17
2018-05-24T06:19:25.134Z,21.00
2018-05-24T06:20:25.143Z,21.14
2018-05-24T06:21:25.173Z,21.27
2018-05-24T06:22:25.192Z,21.61
2018-05-24T06:23:25.243Z,21.92
2018-05-24T06:24:25.230Z,22.13
2018-05-24T06:25:25.292Z,22.18
2018-05-24T06:26:25.280Z,22.02
2018-05-24T06:27:25.295Z,22.47
2018-05-24T06:28:25.326Z,21.76
2018-05-24T06:29:25.381Z,22.14
2018-05-24T06:30:25.378Z,22.62
2018-05-24T06:31:25.393Z,23.08
2018-05-24T06:32:25.409Z,23.25
2018-05-24T06:33:25.427Z,22.73
2018-05-24T06:34:25.454Z,23.10
2018-05-24T06:35:25.484Z,23.69
2018-05-24T06:36:25.497Z,24.06
2018-05-24T06:37:25.519Z,24.48
2018-05-24T06:38:25.542Z,23.66
2018-05-24T06:39:25.593Z,23.86
2018-05-24T06:40:25.685Z,24.05
2018-05-24T06:41:25.609Z,23.84
2018-05-24T06:42:25.640Z,23.69
2018-05-24T06:43:25.663Z,23.81
2018-05-24T06:44:25.697Z,23.17
2018-05-24T06:45:25.711Z,23.54
2018-05-24T06:46:25.771Z,23.78
2018-05-24T06:47:25.761Z,24.10
2018-05-24T06:48:25.785Z,24.36
2018-05-24T06:49:25.834Z,24.35
2018-05-24T06:50:25.824Z,24.40
2018-05-24T06:51:25.845Z,24.61
2018-05-24T06:52:25.887Z,24.01
2018-05-24T06:53:25.906Z,24.10
2018-05-24T06:54:25.925Z,24.43
2018-05-24T06:55:25.938Z,23.81
2018-05-24T06:56:25.964Z,23.32
2018-05-24T06:57:25.995Z,23.46
2018-05-24T06:58:26.019Z,23.40
2018-05-24T06:59:26.055Z,23.21
2018-05-24T07:00:26.067Z,23.08
2018-05-24T07:01:26.083Z,23.59
2018-05-24T07:02:26.131Z,23.18
2018-05-24T07:03:26.139Z,22.85
2018-05-24T07:04:26.159Z,22.20
2018-05-24T07:05:26.182Z,22.08
2018-05-24T07:06:26.201Z,22.13
2018-05-24T07:07:26.239Z,22.70
2018-05-24T07:08:26.259Z,22.78
2018-05-24T07:09:26.270Z,23.15
2018-05-24T07:10:26.288Z,22.73
2018-05-24T07:11:26.326Z,22.57
2018-05-24T07:12:26.367Z,21.85
2018-05-24T07:13:26.366Z,22.30
2018-05-24T07:14:26.387Z,22.91
2018-05-24T07:15:26.409Z,22.81
2018-05-24T07:16:26.506Z,22.50
2018-05-24T07:17:26.464Z,22.94
2018-05-24T07:18:26.480Z,23.09
2018-05-24T07:19:26.496Z,22.08
2018-05-24T07:20:26.535Z,22.23
2018-05-24T07:21:26.548Z,22.51
2018-05-24T07:22:26.569Z,22.36
2018-05-24T07:23:26.618Z,22.41
2018-05-24T07:24:26.606Z,22.48
2018-05-24T07:25:26.645Z,22.94
2018-05-24T07:26:26.662Z,23.10
2018-05-24T07:27:26.683Z,23.41
2018-05-24T07:28:26.698Z,23.34
2018-05-24T07:29:26.726Z,23.40
2018-05-24T07:30:26.752Z,23.25
2018-05-24T07:31:26.774Z,23.09
2018-05-24T07:32:26.798Z,23.37
2018-05-24T07:33:26.810Z,23.24
2018-05-24T07:34:26.864Z,22.99
2018-05-24T07:35:26.857Z,22.90
2018-05-24T07:36:26.894Z,22.73
2018-05-24T07:37:26.920Z,22.91
2018-05-24T07:38:26.948Z,23.09
2018-05-24T07:39:26.948Z,23.34
2018-05-24T07:40:26.972Z,23.28
2018-05-24T07:41:27.023Z,22.78
2018-05-24T07:42:27.022Z,22.45
2018-05-24T07:43:27.050Z,22.55
2018-05-24T07:44:27.063Z,22.62
2018-05-24T07:45:27.096Z,22.80
2018-05-24T07:46:27.114Z,22.50
2018-05-24T07:47:27.137Z,22.69
2018-05-24T07:48:27.150Z,22.35
2018-05-24T07:49:27.192Z,22.63
2018-05-24T07:50:27.200Z,22.51
2018-05-24T07:51:27.229Z,22.44
2018-05-24T07:52:27.246Z,22.54
2018-05-24T07:53:27.264Z,22.39
2018-05-24T07:54:27.291Z,22.53
2018-05-24T07:55:27.351Z,22.02
2018-05-24T07:56:27.366Z,22.10
2018-05-24T07:57:27.363Z,22.13
2018-05-24T07:58:27.385Z,21.85
2018-05-24T07:59:27.399Z,21.73
2018-05-24T08:00:27.419Z,21.96
2018-05-24T08:01:27.451Z,21.92
2018-05-24T08:02:27.469Z,22.07
2018-05-24T08:03:27.525Z,22.04
2018-05-24T08:04:27.527Z,22.04
2018-05-24T08:05:27.533Z,22.13
2018-05-24T08:06:27.575Z,21.82
2018-05-24T08:07:27.576Z,21.82
2018-05-24T08:08:27.600Z,21.93
2018-05-24T08:09:27.622Z,21.98
2018-05-24T08:10:27.662Z,21.72
2018-05-24T08:11:27.671Z,21.57
2018-05-24T08:12:27.699Z,21.91
2018-05-24T08:13:27.743Z,22.08
2018-05-24T08:14:27.736Z,22.14
2018-05-24T08:15:27.763Z,21.99
2018-05-24T08:16:27.791Z,21.72
2018-05-24T08:17:27.800Z,21.91
2018-05-24T08:18:27.832Z,21.77
2018-05-24T08:19:27.837Z,21.95
2018-05-24T08:20:27.924Z,21.45
2018-05-24T08:21:27.925Z,21.39
2018-05-24T08:22:27.918Z,21.85
2018-05-24T08:23:27.923Z,21.73
2018-05-24T08:24:27.957Z,21.62
2018-05-24T08:25:27.973Z,21.95
2018-05-24T08:26:27.990Z,22.14
2018-05-24T08:27:28.052Z,22.75
2018-05-24T08:28:28.039Z,22.68
2018-05-24T08:29:28.063Z,22.98
2018-05-24T08:30:28.081Z,22.60
2018-05-24T08:31:28.109Z,23.13
2018-05-24T08:32:28.126Z,23.05
2018-05-24T08:33:28.142Z,23.05
2018-05-24T08:34:28.169Z,23.41
2018-05-24T08:35:28.193Z,23.83
2018-05-24T08:36:28.212Z,23.71
2018-05-24T08:37:28.240Z,23.54
2018-05-24T08:38:28.278Z,23.39
2018-05-24T08:39:28.284Z,23.71
2018-05-24T08:40:28.328Z,24.11
2018-05-24T08:41:28.350Z,23.93
2018-05-24T08:42:28.359Z,23.46
2018-05-24T08:43:28.367Z,24.01
2018-05-24T08:44:28.406Z,23.93
2018-05-24T08:45:28.437Z,23.46
2018-05-24T08:46:28.436Z,23.92
2018-05-24T08:47:28.511Z,23.17
2018-05-24T08:48:28.503Z,23.39
2018-05-24T08:49:28.503Z,23.43
2018-05-24T08:50:28.539Z,23.55
2018-05-24T08:51:28.558Z,23.88
2018-05-24T08:52:28.575Z,23.65
2018-05-24T08:53:28.653Z,23.77
2018-05-24T08:54:28.641Z,23.61
2018-05-24T08:55:28.683Z,23.83
2018-05-24T08:56:28.678Z,23.91
2018-05-24T08:57:28.715Z,23.34
2018-05-24T08:58:28.723Z,23.71
2018-05-24T08:59:28.742Z,24.01
2018-05-24T09:00:28.768Z,24.29
2018-05-24T09:01:28.936Z,23.92
2018-05-24T09:02:28.816Z,23.24
2018-05-24T09:03:28.861Z,23.41
2018-05-24T09:04:28.852Z,24.05
2018-05-24T09:05:28.875Z,23.93
2018-05-24T09:06:28.909Z,23.69
2018-05-24T09:07:28.945Z,23.21
2018-05-24T09:08:28.941Z,23.41
2018-05-24T09:09:28.997Z,24.05
2018-05-24T09:10:28.989Z,23.87
2018-05-24T09:11:29.023Z,24.08
2018-05-24T09:12:29.038Z,23.62
2018-05-24T09:13:29.077Z,23.23
2018-05-24T09:14:29.101Z,23.62
2018-05-24T09:15:29.118Z,23.55
2018-05-24T09:16:29.130Z,23.46
2018-05-24T09:17:29.152Z,22.76
2018-05-24T09:18:29.190Z,23.37
2018-05-24T09:19:29.196Z,22.66
2018-05-24T09:20:29.227Z,23.09
2018-05-24T09:21:29.253Z,23.17
2018-05-24T09:22:29.274Z,23.03
2018-05-24T09:23:29.311Z,23.21
2018-05-24T09:24:29.328Z,23.40
2018-05-24T09:25:29.339Z,23.56
2018-05-24T09:26:29.380Z,23.59
2018-05-24T09:27:29.381Z,23.71
2018-05-24T09:28:29.407Z,23.27
2018-05-24T09:29:29.496Z,22.93
2018-05-24T09:30:29.453Z,22.70
2018-05-24T09:31:29.517Z,22.68
2018-05-24T09:32:29.500Z,23.13
2018-05-24T09:33:29.522Z,23.12
2018-05-24T09:34:29.543Z,23.46
2018-05-24T09:35:29.582Z,22.93
2018-05-24T09:36:29.591Z,22.36
2018-05-24T09:37:29.610Z,22.38
2018-05-24T09:38:29.659Z,22.93
2018-05-24T09:39:29.686Z,23.06
2018-05-24T09:40:29.702Z,22.96
2018-05-24T09:41:29.702Z,22.87
2018-05-24T09:42:29.723Z,23.15
2018-05-24T09:43:29.762Z,22.51
2018-05-24T09:44:29.771Z,21.93
2018-05-24T09:45:29.795Z,22.15
2018-05-24T09:46:29.820Z,22.54
2018-05-24T09:47:29.849Z,22.93
2018-05-24T09:48:29.875Z,23.18
2018-05-24T09:49:29.877Z,23.06
2018-05-24T09:50:29.915Z,23.03
2018-05-24T09:51:29.967Z,23.10
2018-05-24T09:52:29.943Z,22.59
2018-05-24T09:53:29.970Z,22.59
2018-05-24T09:54:29.992Z,22.83
2018-05-24T09:55:30.014Z,22.78
2018-05-24T09:56:30.042Z,22.98
2018-05-24T09:57:30.075Z,22.62
2018-05-24T09:58:30.091Z,22.55
2018-05-24T09:59:30.105Z,22.33
2018-05-24T10:00:30.127Z,22.33
2018-05-24T10:01:30.178Z,22.54
2018-05-24T10:02:30.202Z,22.25
2018-05-24T10:03:30.193Z,21.79
2018-05-24T10:04:30.303Z,21.27
2018-05-24T10:05:30.266Z,21.52
2018-05-24T10:06:30.348Z,21.61
2018-05-24T10:07:30.293Z,21.83
2018-05-24T10:08:30.299Z,21.85
2018-05-24T10:09:30.342Z,21.93
2018-05-24T10:10:30.395Z,22.10
2018-05-24T10:11:30.386Z,21.88
2018-05-24T10:12:30.392Z,21.96
2018-05-24T10:13:30.412Z,22.00
2018-05-24T10:14:30.437Z,21.77
2018-05-24T10:15:30.454Z,21.89
2018-05-24T10:16:30.501Z,21.79
2018-05-24T10:17:30.522Z,21.55
2018-05-24T10:18:30.527Z,21.93
2018-05-24T10:19:30.577Z,21.72
2018-05-24T10:20:30.580Z,21.70
2018-05-24T10:21:30.632Z,21.58
2018-05-24T10:22:30.649Z,21.61
2018-05-24T10:23:30.717Z,21.27
2018-05-24T10:24:30.676Z,21.15
2018-05-24T10:25:30.678Z,21.27
2018-05-24T10:26:30.704Z,21.29
2018-05-24T10:27:30.735Z,21.62
2018-05-24T10:28:30.741Z,21.82
2018-05-24T10:29:30.791Z,21.67
2018-05-24T10:30:30.803Z,21.48
2018-05-24T10:31:30.838Z,21.73
2018-05-24T10:32:30.825Z,21.40
2018-05-24T10:33:30.868Z,21.55
2018-05-24T10:34:30.875Z,21.21
2018-05-24T10:35:30.919Z,21.02
2018-05-24T10:36:30.929Z,21.33
2018-05-24T10:37:30.940Z,21.46
2018-05-24T10:38:30.976Z,21.35
2018-05-24T10:39:31.013Z,21.36
2018-05-24T10:40:31.003Z,21.35
2018-05-24T10:41:31.042Z,21.06
2018-05-24T10:42:31.049Z,21.05
2018-05-24T10:43:31.071Z,21.21
2018-05-24T10:44:31.123Z,21.02
2018-05-24T10:45:31.106Z,20.40
2018-05-24T10:46:31.146Z,20.72
2018-05-24T10:47:31.158Z,20.84
2018-05-24T10:48:31.169Z,21.07
2018-05-24T10:49:31.198Z,20.99
2018-05-24T10:50:31.236Z,20.85
2018-05-24T10:51:31.242Z,20.90
2018-05-24T10:52:31.268Z,20.60
2018-05-24T10:53:31.281Z,20.59
2018-05-24T10:54:31.300Z,20.66
2018-05-24T10:55:31.333Z,20.47
2018-05-24T10:56:31.392Z,20.72
2018-05-24T10:57:31.367Z,21.15
2018-05-24T10:58:31.387Z,21.15
2018-05-24T10:59:31.521Z,20.51
2018-05-24T11:00:31.431Z,20.69
2018-05-24T11:01:31.458Z,20.62
2018-05-24T11:02:31.481Z,20.78
2018-05-24T11:03:31.495Z,20.90
2018-05-24T11:04:31.527Z,20.34
2018-05-24T11:05:31.555Z,20.67
2018-05-24T11:06:31.559Z,20.97
2018-05-24T11:07:31.600Z,20.58
2018-05-24T11:08:31.605Z,21.00
2018-05-24T11:09:31.622Z,21.05
2018-05-24T11:10:31.643Z,20.88
2018-05-24T11:11:31.698Z,20.58
2018-05-24T11:12:31.691Z,21.06
2018-05-24T11:13:31.708Z,20.96
2018-05-24T11:14:31.736Z,20.34
2018-05-24T11:15:31.771Z,20.81
2018-05-24T11:16:31.779Z,21.27
2018-05-24T11:17:31.805Z,21.39
2018-05-24T11:18:31.822Z,21.24
2018-05-24T11:19:31.838Z,21.43
2018-05-24T11:20:31.859Z,21.50
2018-05-24T11:21:31.885Z,21.20
2018-05-24T11:22:31.911Z,21.06
2018-05-24T11:23:31.927Z,20.84
2018-05-24T11:24:31.990Z,20.72
2018-05-24T11:25:31.970Z,20.39
2018-05-24T11:26:31.997Z,20.18
2018-05-24T11:27:32.031Z,20.72
2018-05-24T11:28:32.036Z,21.00
2018-05-24T11:29:32.059Z,20.96
2018-05-24T11:30:32.081Z,20.59
2018-05-24T11:31:32.108Z,20.04
2018-05-24T11:32:32.123Z,20.21
2018-05-24T11:33:32.161Z,20.44
2018-05-24T11:34:32.177Z,20.26
2018-05-24T11:35:32.199Z,20.06
2018-05-24T11:36:32.206Z,20.19
2018-05-24T11:37:32.228Z,20.22
2018-05-24T11:38:32.255Z,20.31
2018-05-24T11:39:32.275Z,20.22
2018-05-24T11:40:32.312Z,20.31
2018-05-24T11:41:32.314Z,20.00
2018-05-24T11:42:32.350Z,20.11
2018-05-24T11:43:32.488Z,20.40
2018-05-24T11:44:32.388Z,20.26
2018-05-24T11:45:32.397Z,20.03
2018-05-24T11:46:32.431Z,20.06
2018-05-24T11:47:32.453Z,20.28
2018-05-24T11:48:32.464Z,20.36
2018-05-24T11:49:32.482Z,19.77
2018-05-24T11:50:32.533Z,19.92
2018-05-24T11:51:32.526Z,20.09
2018-05-24T11:52:32.544Z,19.85
2018-05-24T11:53:32.567Z,19.91
2018-05-24T11:54:32.595Z,19.92
2018-05-24T11:55:32.610Z,20.36
2018-05-24T11:56:32.667Z,20.43
2018-05-24T11:57:32.666Z,20.32
2018-05-24T11:58:32.683Z,19.88
2018-05-24T11:59:32.700Z,20.02
2018-05-24T12:00:32.812Z,19.84
2018-05-24T12:01:32.735Z,19.82
2018-05-24T12:02:32.761Z,20.00
2018-05-24T12:03:32.778Z,19.77
2018-05-24T12:04:32.806Z,19.86
2018-05-24T12:05:32.822Z,20.13
2018-05-24T12:06:32.844Z,20.14
2018-05-24T12:07:32.867Z,19.92
2018-05-24T12:08:32.882Z,19.95
2018-05-24T12:09:32.906Z,19.88
2018-05-24T12:10:32.925Z,20.06
2018-05-24T12:11:32.954Z,19.69
2018-05-24T12:12:33.006Z,19.91
2018-05-24T12:13:33.003Z,19.48
2018-05-24T12:14:33.012Z,19.88
2018-05-24T12:15:33.030Z,19.59
2018-05-24T12:16:33.059Z,20.03
2018-05-24T12:17:33.074Z,20.02
2018-05-24T12:18:33.105Z,19.82
2018-05-24T12:19:33.144Z,19.70
2018-05-24T12:20:33.133Z,19.74
2018-05-24T12:21:33.157Z,19.84
2018-05-24T12:22:33.179Z,19.63
2018-05-24T12:23:33.192Z,19.62
2018-05-24T12:24:33.233Z,19.49
2018-05-24T12:25:33.265Z,19.37
2018-05-24T12:26:33.267Z,19.55
2018-05-24T12:27:33.301Z,19.47
2018-05-24T12:28:33.311Z,19.69
2018-05-24T12:29:33.337Z,19.69
2018-05-24T12:30:33.339Z,19.63
2018-05-24T12:31:33.361Z,19.49
2018-05-24T12:32:33.381Z,19.59
2018-05-24T12:33:33.404Z,19.69
2018-05-24T12:34:33.435Z,19.51
2018-05-24T12:35:33.473Z,19.51
2018-05-24T12:36:33.474Z,19.82
2018-05-24T12:37:33.499Z,19.89
2018-05-24T12:38:33.508Z,19.92
2018-05-24T12:39:33.527Z,19.63
2018-05-24T12:40:33.551Z,19.66
2018-05-24T12:41:33.644Z,19.74
2018-05-24T12:42:33.597Z,19.77
2018-05-24T12:43:33.632Z,20.02
2018-05-24T12:44:33.629Z,19.94
2018-05-24T12:45:33.652Z,20.11
2018-05-24T12:46:33.673Z,20.11
2018-05-24T12:47:33.712Z,20.14
2018-05-24T12:48:33.721Z,20.25
2018-05-24T12:49:33.744Z,20.43
2018-05-24T12:50:33.766Z,20.18
2018-05-24T12:51:33.796Z,19.85
2018-05-24T12:52:33.802Z,19.81